createdAt,value
2023-05-19T00:03:34.037Z,9.23
2023-05-19T00:08:38.464Z,9.19
2023-05-19T00:13:40.580Z,9.19
2023-05-19T00:18:43.364Z,9.16
2023-05-19T00:23:45.711Z,9.18
2023-05-19T00:28:47.457Z,9.17
2023-05-19T00:33:49.234Z,9.16
2023-05-19T00:38:51.956Z,9.17
2023-05-19T00:43:53.828Z,9.16
2023-05-19T00:48:55.542Z,9.12
2023-05-19T00:53:57.905Z,9.10
2023-05-19T00:59:00.974Z,9.05
2023-05-19T01:04:04.112Z,9.04
2023-05-19T01:09:06.194Z,9.03
2023-05-19T01:14:09.734Z,9.03
2023-05-19T01:19:21.043Z,8.96
2023-05-19T01:24:30.552Z,8.90
2023-05-19T01:29:42.741Z,8.87
2023-05-19T01:34:46.620Z,8.83
2023-05-19T01:39:48.674Z,8.81
2023-05-19T01:44:52.071Z,8.79
2023-05-19T01:49:54.524Z,8.73
2023-05-19T01:54:56.277Z,8.66
2023-05-19T02:00:13.393Z,8.60
2023-05-19T02:05:29.527Z,8.53
2023-05-19T02:10:37.589Z,8.51
2023-05-19T02:15:42.395Z,8.48
2023-05-19T02:20:44.331Z,8.49
2023-05-19T02:25:46.191Z,8.49
2023-05-19T02:30:48.233Z,8.50
2023-05-19T02:35:50.467Z,8.48
2023-05-19T02:40:55.746Z,8.45
2023-05-19T02:45:57.669Z,8.42
2023-05-19T02:51:01.372Z,8.42
2023-05-19T02:56:03.693Z,8.39
2023-05-19T03:01:05.534Z,8.38
2023-05-19T03:06:10.654Z,8.43
2023-05-19T03:11:12.510Z,8.46
2023-05-19T03:16:14.594Z,8.50
2023-05-19T03:21:16.512Z,8.50
2023-05-19T03:26:18.299Z,8.57
2023-05-19T03:31:20.178Z,8.65
2023-05-19T03:36:22.684Z,8.77
2023-05-19T03:41:24.741Z,8.95
2023-05-19T03:46:28.441Z,9.12
2023-05-19T03:51:48.795Z,9.22
2023-05-19T03:57:05.210Z,9.27
2023-05-19T04:02:08.393Z,9.29
2023-05-19T04:07:10.403Z,9.51
2023-05-19T04:12:12.150Z,9.59
2023-05-19T04:17:14.049Z,9.77
2023-05-19T04:22:15.961Z,9.91
2023-05-19T04:27:18.277Z,10.18
2023-05-19T04:32:20.309Z,10.23
2023-05-19T04:37:22.896Z,10.13
2023-05-19T04:42:28.794Z,10.38
2023-05-19T04:47:30.764Z,10.25
2023-05-19T04:52:33.988Z,10.42
2023-05-19T04:57:37.829Z,10.18
2023-05-19T05:02:40.245Z,10.26
2023-05-19T05:07:43.172Z,10.48
2023-05-19T05:12:46.688Z,10.60
2023-05-19T05:17:48.871Z,10.49
2023-05-19T05:22:51.327Z,10.77
2023-05-19T05:27:54.286Z,10.88
2023-05-19T05:32:56.640Z,10.51
2023-05-19T05:38:09.068Z,10.57
2023-05-19T05:43:12.196Z,10.64
2023-05-19T05:48:21.263Z,10.94
2023-05-19T05:53:25.389Z,11.10
2023-05-19T05:58:28.958Z,11.42
2023-05-19T06:03:32.083Z,12.02
2023-05-19T06:08:41.579Z,11.95
2023-05-19T06:13:43.650Z,12.00
2023-05-19T06:18:51.469Z,12.21
2023-05-19T06:23:54.352Z,12.30
2023-05-19T06:28:56.529Z,12.52
2023-05-19T06:34:01.506Z,12.54
2023-05-19T06:39:06.307Z,13.12
2023-05-19T06:44:11.305Z,13.11
2023-05-19T06:49:13.134Z,13.48
2023-05-19T06:54:19.378Z,13.84
2023-05-19T06:59:26.005Z,14.18
2023-05-19T07:04:28.046Z,14.66
2023-05-19T07:09:31.517Z,15.37
2023-05-19T07:14:33.492Z,15.33
2023-05-19T07:19:39.180Z,14.49
2023-05-19T07:24:42.061Z,15.19
2023-05-19T07:29:44.168Z,15.07
2023-05-19T07:34:46.026Z,14.10
2023-05-19T07:39:48.013Z,14.89
2023-05-19T07:44:52.537Z,14.88
2023-05-19T07:49:55.929Z,15.71
2023-05-19T07:54:59.161Z,16.94
2023-05-19T08:00:01.229Z,17.21
2023-05-19T08:05:13.528Z,17.98
2023-05-19T08:10:15.415Z,17.66
2023-05-19T08:15:17.224Z,17.15
2023-05-19T08:20:23.012Z,17.92
2023-05-19T08:25:30.355Z,17.90
2023-05-19T08:30:32.532Z,18.04
2023-05-19T08:35:34.774Z,17.81
2023-05-19T08:40:38.168Z,19.27
2023-05-19T08:45:48.415Z,17.73
2023-05-19T08:51:03.240Z,19.09
2023-05-19T08:56:11.194Z,18.91
2023-05-19T09:01:19.443Z,20.78
2023-05-19T09:06:23.464Z,20.31
2023-05-19T09:11:25.356Z,20.01
2023-05-19T09:16:43.722Z,20.82
2023-05-19T09:22:14.836Z,22.22
2023-05-19T09:27:41.615Z,21.57
2023-05-19T09:32:52.869Z,21.35
2023-05-19T09:38:02.179Z,21.02
2023-05-19T09:43:08.136Z,20.10
2023-05-19T09:48:12.492Z,21.67
2023-05-19T09:53:18.771Z,20.51
2023-05-19T09:58:25.766Z,20.92
2023-05-19T10:03:33.100Z,21.81
2023-05-19T10:08:38.342Z,21.50
2023-05-19T10:13:46.745Z,21.08
2023-05-19T10:18:51.862Z,21.90
2023-05-19T10:23:54.625Z,22.46
2023-05-19T10:28:58.786Z,23.02
2023-05-19T10:34:22.741Z,23.39
2023-05-19T10:39:45.476Z,23.29
2023-05-19T10:45:39.209Z,22.81
2023-05-19T10:50:59.037Z,24.07
2023-05-19T10:56:16.142Z,23.92
2023-05-19T11:08:35.194Z,22.18
2023-05-19T11:21:20.160Z,23.48
2023-05-19T11:27:43.205Z,23.55
2023-05-19T11:41:33.215Z,23.41
2023-05-19T11:46:27.106Z,24.11
2023-05-19T11:51:39.707Z,23.76
2023-05-19T11:56:46.696Z,24.43
2023-05-19T12:01:57.411Z,23.53
2023-05-19T12:07:31.063Z,24.55
2023-05-19T12:12:55.528Z,24.39
2023-05-19T12:18:31.347Z,24.99
2023-05-19T12:24:02.306Z,24.68
2023-05-19T12:29:54.027Z,24.63
2023-05-19T12:35:21.985Z,24.56
2023-05-19T12:40:52.755Z,24.61
2023-05-19T12:46:23.168Z,24.46
2023-05-19T12:51:39.034Z,25.13
2023-05-19T12:56:51.438Z,24.45
2023-05-19T13:02:03.031Z,24.35
2023-05-19T13:07:25.669Z,24.76
2023-05-19T13:12:31.361Z,24.60
2023-05-19T13:31:22.987Z,24.68
2023-05-19T13:51:01.230Z,24.38
2023-05-19T13:56:34.506Z,23.87
2023-05-19T14:08:35.608Z,24.26
2023-05-19T14:14:14.781Z,23.74
2023-05-19T14:27:39.814Z,23.30
2023-05-19T14:32:55.733Z,23.47
2023-05-19T14:37:58.286Z,23.52
2023-05-19T14:43:05.098Z,23.69
2023-05-19T14:48:06.910Z,24.20
2023-05-19T14:53:08.844Z,24.64
2023-05-19T14:58:26.848Z,24.18
2023-05-19T15:03:33.042Z,25.03
2023-05-19T15:08:39.400Z,25.06
2023-05-19T15:13:41.255Z,24.68
2023-05-19T15:19:23.000Z,24.16
2023-05-19T15:24:25.260Z,24.07
2023-05-19T15:30:18.356Z,23.63
2023-05-19T15:35:54.345Z,23.81
2023-05-19T15:41:01.786Z,23.75
2023-05-19T15:46:16.596Z,23.19
2023-05-19T15:51:44.338Z,22.56
2023-05-19T15:56:55.097Z,21.84
2023-05-19T16:02:07.329Z,21.61
2023-05-19T16:07:09.171Z,21.31
2023-05-19T16:12:10.970Z,21.09
2023-05-19T16:17:13.880Z,21.02
2023-05-19T16:22:16.906Z,21.63
2023-05-19T16:27:18.938Z,21.82
2023-05-19T16:32:21.272Z,22.02
2023-05-19T16:37:23.076Z,21.88
2023-05-19T16:42:25.382Z,21.73
2023-05-19T16:47:27.240Z,21.89
2023-05-19T16:52:31.950Z,22.00
2023-05-19T16:57:33.779Z,22.15
2023-05-19T17:02:35.607Z,22.28
2023-05-19T17:07:39.369Z,22.46
2023-05-19T17:12:41.178Z,22.18
2023-05-19T17:17:45.295Z,22.31
2023-05-19T17:22:47.109Z,22.93
2023-05-19T17:27:48.994Z,23.03
2023-05-19T17:32:51.122Z,23.62
2023-05-19T17:37:53.042Z,22.69
2023-05-19T17:42:54.882Z,21.85
2023-05-19T17:47:56.729Z,21.26
2023-05-19T17:52:58.941Z,20.73
2023-05-19T17:58:01.290Z,20.24
2023-05-19T18:03:04.940Z,19.87
2023-05-19T18:08:09.427Z,19.44
2023-05-19T18:13:14.059Z,18.97
2023-05-19T18:18:17.408Z,18.64
2023-05-19T18:23:20.553Z,18.30
2023-05-19T18:28:24.045Z,17.94
2023-05-19T18:33:27.305Z,17.58
2023-05-19T18:38:30.354Z,17.27
2023-05-19T18:43:32.510Z,16.97
2023-05-19T18:48:34.557Z,16.72
2023-05-19T18:53:37.093Z,16.46
2023-05-19T18:58:38.918Z,16.23
2023-05-19T19:03:41.960Z,16.07
2023-05-19T19:08:44.436Z,15.88
2023-05-19T19:13:46.370Z,15.73
2023-05-19T19:18:48.253Z,15.56
2023-05-19T19:23:54.774Z,15.39
2023-05-19T19:28:56.797Z,15.27
2023-05-19T19:34:03.098Z,15.14
2023-05-19T19:39:05.127Z,15.07
2023-05-19T19:44:08.018Z,14.96
2023-05-19T19:49:09.833Z,14.85
2023-05-19T19:54:11.630Z,14.73
2023-05-19T19:59:13.487Z,14.63
2023-05-19T20:04:15.637Z,14.54
2023-05-19T20:09:19.791Z,14.46
2023-05-19T20:14:21.847Z,14.36
2023-05-19T20:19:25.611Z,14.22
2023-05-19T20:24:27.508Z,14.14
2023-05-19T20:29:29.394Z,14.05
2023-05-19T20:34:31.419Z,13.95
2023-05-19T20:39:34.425Z,13.82
2023-05-19T20:44:36.362Z,13.76
2023-05-19T20:49:40.506Z,13.65
2023-05-19T20:54:42.662Z,13.68
2023-05-19T20:59:44.635Z,13.60
2023-05-19T21:04:46.484Z,13.54
2023-05-19T21:09:50.441Z,13.41
2023-05-19T21:14:52.418Z,13.22
2023-05-19T21:19:58.018Z,13.20
2023-05-19T21:25:00.032Z,13.11
2023-05-19T21:30:02.048Z,12.98
2023-05-19T21:35:04.919Z,12.85
2023-05-19T21:40:08.059Z,12.74
2023-05-19T21:45:10.325Z,12.67
2023-05-19T21:50:15.689Z,12.54
2023-05-19T21:55:17.518Z,12.39
2023-05-19T22:00:19.353Z,12.27
2023-05-19T22:05:21.272Z,12.19
2023-05-19T22:10:23.317Z,12.12
2023-05-19T22:15:25.150Z,12.15
2023-05-19T22:20:26.919Z,12.31
2023-05-19T22:25:28.803Z,12.42
2023-05-19T22:30:30.836Z,12.45
2023-05-19T22:35:34.025Z,12.49
2023-05-19T22:40:36.248Z,12.56
2023-05-19T22:45:38.560Z,12.54
2023-05-19T22:50:40.708Z,12.55
2023-05-19T22:55:42.629Z,12.51
2023-05-19T23:00:44.459Z,12.42
2023-05-19T23:05:46.518Z,12.44
2023-05-19T23:10:48.252Z,12.38
2023-05-19T23:15:50.014Z,12.36
2023-05-19T23:20:51.833Z,12.29
2023-05-19T23:25:53.586Z,12.26
2023-05-19T23:30:56.059Z,12.19
2023-05-19T23:35:59.713Z,12.24
2023-05-19T23:41:01.747Z,12.18
2023-05-19T23:46:03.642Z,12.13
2023-05-19T23:51:05.649Z,12.05
2023-05-19T23:56:07.785Z,12.06
